Time;durP1;ratioP1;P1;durP2;ratioP2;P2;SDS_P1;SDS_P2;PMS_P1;PMS_P2;Temp;Humidity;BMP_temperature;BMP_pressure;BME280_temperature;BME280_humidity;BME280_pressure;Samples;Min_cycle;Max_cycle;Signal;HPM_P1;HPM_P2
2021/11/17 02:27:38;;;;;;;6.60;3.92;;;;;;;;;;4961667;28;20498;-82
2021/11/17 02:30:12;;;;;;;8.50;4.50;;;;;;;;;;4983883;28;20078;-83
2021/11/17 02:32:45;;;;;;;6.45;3.63;;;;;;;;;;4965353;28;20062;-81
2021/11/17 02:35:11;;;;;;;8.35;4.30;;;;;;;;;;4969212;28;20043;-83
2021/11/17 02:37:44;;;;;;;6.25;4.00;;;;;;;;;;4970587;28;20042;-81
2021/11/17 02:40:10;;;;;;;7.47;3.60;;;;;;;;;;4970852;28;20097;-81
2021/11/17 02:42:43;;;;;;;8.05;4.30;;;;;;;;;;4964165;28;20058;-81
2021/11/17 02:45:25;;;;;;;5.43;3.45;;;;;;;;;;4977392;28;20093;-81
2021/11/17 02:48:07;;;;;;;6.82;4.13;;;;;;;;;;4967836;28;20460;-81
2021/11/17 02:50:33;;;;;;;8.20;4.45;;;;;;;;;;4982588;28;20058;-82
2021/11/17 02:53:06;;;;;;;8.77;3.70;;;;;;;;;;4981594;28;20058;-82
2021/11/17 02:55:39;;;;;;;7.07;3.45;;;;;;;;;;4967342;28;20447;-82
2021/11/17 02:58:05;;;;;;;8.13;3.78;;;;;;;;;;4985647;28;20061;-82
2021/11/17 03:00:50;;;;;;;7.97;3.90;;;;;;;;;;4969615;28;20058;-83
2021/11/17 03:03:36;;;;;;;6.93;4.10;;;;;;;;;;4971004;28;20134;-82
2021/11/17 03:06:28;;;;;;;6.90;3.85;;;;;;;;;;4961398;28;20877;-82
2021/11/17 03:09:03;;;;;;;5.93;3.72;;;;;;;;;;4964405;28;20055;-81
2021/11/17 03:11:48;;;;;;;8.20;3.97;;;;;;;;;;4969580;28;20070;-82
2021/11/17 03:14:27;;;;;;;8.10;4.00;;;;;;;;;;4975231;28;20112;-82
2021/11/17 03:17:02;;;;;;;7.32;4.10;;;;;;;;;;4966103;28;20483;-82
2021/11/17 03:19:44;;;;;;;7.40;3.50;;;;;;;;;;4966703;28;20109;-80
2021/11/17 03:22:32;;;;;;;5.82;3.72;;;;;;;;;;4967836;28;20085;-81
2021/11/17 03:24:58;;;;;;;6.38;3.50;;;;;;;;;;4969401;28;20389;-82
2021/11/17 03:27:43;;;;;;;7.30;4.07;;;;;;;;;;4969720;28;20092;-81
2021/11/17 03:30:28;;;;;;;6.03;3.22;;;;;;;;;;4986122;28;20125;-81
2021/11/17 03:33:06;;;;;;;6.57;3.90;;;;;;;;;;4976163;28;20092;-81
2021/11/17 03:35:42;;;;;;;7.07;3.03;;;;;;;;;;4987337;28;20088;-81
2021/11/17 03:38:08;;;;;;;7.22;3.55;;;;;;;;;;4988756;28;20034;-80
2021/11/17 03:40:53;;;;;;;6.00;3.35;;;;;;;;;;4976407;28;20062;-82
2021/11/17 03:43:38;;;;;;;7.20;3.58;;;;;;;;;;4987918;28;20050;-82
2021/11/17 03:46:20;;;;;;;7.15;3.95;;;;;;;;;;4988870;28;20066;-81
2021/11/17 03:48:52;;;;;;;6.25;3.45;;;;;;;;;;4970659;28;20085;-81
2021/11/17 03:51:28;;;;;;;6.28;3.33;;;;;;;;;;4981680;28;20077;-82
2021/11/17 03:54:17;;;;;;;7.85;3.50;;;;;;;;;;4984453;28;20405;-83
2021/11/17 03:57:00;;;;;;;6.10;3.65;;;;;;;;;;4984836;28;20070;-80
2021/11/17 03:59:53;;;;;;;8.20;3.78;;;;;;;;;;4985825;28;20105;-81
2021/11/17 04:02:19;;;;;;;6.45;3.50;;;;;;;;;;4969556;28;20062;-81
2021/11/17 04:04:45;;;;;;;7.97;4.28;;;;;;;;;;4985886;28;20141;-81
2021/11/17 04:07:12;;;;;;;7.60;3.92;;;;;;;;;;4990853;28;20058;-81
2021/11/17 04:09:47;;;;;;;5.65;3.05;;;;;;;;;;4984578;28;20049;-81
2021/11/17 04:12:32;;;;;;;5.70;3.13;;;;;;;;;;4983532;28;20186;-81
2021/11/17 04:14:59;;;;;;;7.00;3.35;;;;;;;;;;4962001;28;20057;-80
2021/11/17 04:17:38;;;;;;;6.40;3.58;;;;;;;;;;4985842;28;20065;-80
2021/11/17 04:20:08;;;;;;;6.00;3.30;;;;;;;;;;4975025;28;20517;-83
2021/11/17 04:22:41;;;;;;;5.90;3.30;;;;;;;;;;4985393;28;20058;-83
2021/11/17 04:25:08;;;;;;;5.07;2.78;;;;;;;;;;4987500;28;20608;-83
2021/11/17 04:27:53;;;;;;;6.82;3.10;;;;;;;;;;4986418;28;20459;-80
2021/11/17 04:30:19;;;;;;;11.13;3.70;;;;;;;;;;4984578;28;20482;-79
2021/11/17 04:32:49;;;;;;;8.02;3.60;;;;;;;;;;4977177;28;20070;-82
2021/11/17 04:35:41;;;;;;;6.20;3.60;;;;;;;;;;4988433;28;20038;-80
2021/11/17 04:38:08;;;;;;;7.32;3.78;;;;;;;;;;4955015;28;20046;-81
2021/11/17 04:40:48;;;;;;;7.45;3.45;;;;;;;;;;4984368;28;20058;-82
2021/11/17 04:43:15;;;;;;;7.65;3.78;;;;;;;;;;4960536;28;20054;-80
2021/11/17 04:46:00;;;;;;;6.65;3.47;;;;;;;;;;4987326;28;20042;-80
2021/11/17 04:48:45;;;;;;;7.18;4.10;;;;;;;;;;4983769;28;20112;-81
2021/11/17 04:51:14;;;;;;;6.65;3.72;;;;;;;;;;4988755;28;20454;-80
2021/11/17 04:53:44;;;;;;;8.20;4.15;;;;;;;;;;4985522;28;20078;-82
2021/11/17 04:56:28;;;;;;;6.88;3.70;;;;;;;;;;4977949;28;20046;-79
2021/11/17 04:59:11;;;;;;;7.45;3.78;;;;;;;;;;4983939;28;20054;-79
2021/11/17 05:01:56;;;;;;;7.57;3.65;;;;;;;;;;4984559;28;20101;-80
2021/11/17 05:04:25;;;;;;;7.28;3.83;;;;;;;;;;4989396;28;20050;-79
2021/11/17 05:06:54;;;;;;;6.32;3.78;;;;;;;;;;4986817;28;21585;-79
2021/11/17 05:09:30;;;;;;;12.68;4.22;;;;;;;;;;4978754;28;20502;-79
2021/11/17 05:12:11;;;;;;;9.82;4.45;;;;;;;;;;4985874;28;20034;-79
2021/11/17 05:14:47;;;;;;;8.88;4.47;;;;;;;;;;4987339;28;20109;-80
2021/11/17 05:17:32;;;;;;;11.50;4.20;;;;;;;;;;4987639;28;20050;-80
2021/11/17 05:20:11;;;;;;;9.95;4.35;;;;;;;;;;4986384;28;20100;-79
2021/11/17 05:22:52;;;;;;;10.10;4.70;;;;;;;;;;4987096;28;20086;-80
2021/11/17 05:25:18;;;;;;;;;;;;;;;;;;4988548;28;20074;-78
2021/11/17 05:27:51;;;;;;;5.93;3.42;;;;;;;;;;4988143;28;19956;-80
2021/11/17 05:30:36;;;;;;;8.15;3.75;;;;;;;;;;4988695;28;20696;-78
2021/11/17 05:33:05;;;;;;;7.18;4.05;;;;;;;;;;4974146;28;21359;-79
2021/11/17 05:35:48;;;;;;;8.00;3.88;;;;;;;;;;4965835;28;20081;-80
2021/11/17 05:38:14;;;;;;;7.25;3.90;;;;;;;;;;4965766;28;20067;-79
2021/11/17 05:40:59;;;;;;;8.23;3.92;;;;;;;;;;4985738;28;20062;-80
2021/11/17 05:43:28;;;;;;;7.68;4.32;;;;;;;;;;4968517;28;20039;-80
2021/11/17 05:46:04;;;;;;;7.45;3.60;;;;;;;;;;4964749;28;21271;-80
2021/11/17 05:48:42;;;;;;;7.20;3.88;;;;;;;;;;4969063;28;20175;-81
2021/11/17 05:51:28;;;;;;;10.95;4.22;;;;;;;;;;4970631;28;20054;-80
2021/11/17 05:54:13;;;;;;;6.85;3.70;;;;;;;;;;4969284;28;20381;-80
2021/11/17 05:56:47;;;;;;;7.88;3.83;;;;;;;;;;4985840;28;20085;-79
2021/11/17 05:59:23;;;;;;;7.95;3.80;;;;;;;;;;4990881;28;20112;-80
2021/11/17 06:02:11;;;;;;;6.28;3.50;;;;;;;;;;5002337;28;20065;-81
2021/11/17 06:04:37;;;;;;;7.40;3.20;;;;;;;;;;4988491;28;20494;-81
2021/11/17 06:07:04;;;;;;;9.05;3.90;;;;;;;;;;4990856;28;20049;-80
2021/11/17 06:09:30;;;;;;;7.35;3.60;;;;;;;;;;4980170;28;20050;-80
2021/11/17 06:12:01;;;;;;;9.40;3.65;;;;;;;;;;4989134;28;20066;-81
2021/11/17 06:14:30;;;;;;;6.50;3.17;;;;;;;;;;4987727;28;20135;-80
2021/11/17 06:17:01;;;;;;;7.63;3.70;;;;;;;;;;4986521;28;20396;-80
2021/11/17 06:19:30;;;;;;;7.32;3.63;;;;;;;;;;4986825;28;20123;-80
2021/11/17 06:21:56;;;;;;;6.15;3.38;;;;;;;;;;5000690;28;20054;-80
2021/11/17 06:24:24;;;;;;;8.25;3.70;;;;;;;;;;5002758;28;20050;-82
2021/11/17 06:26:51;;;;;;;8.02;3.50;;;;;;;;;;4987821;28;20502;-81
2021/11/17 06:29:29;;;;;;;6.22;3.20;;;;;;;;;;4988475;28;20062;-81
2021/11/17 06:31:56;;;;;;;6.63;3.40;;;;;;;;;;4985634;28;20104;-82
2021/11/17 06:34:25;;;;;;;7.10;3.65;;;;;;;;;;4993674;28;20046;-80
2021/11/17 06:36:52;;;;;;;7.05;3.10;;;;;;;;;;4990977;28;20116;-81
2021/11/17 06:39:18;;;;;;;5.57;2.80;;;;;;;;;;4948966;28;20061;-81
2021/11/17 06:41:45;;;;;;;5.22;2.75;;;;;;;;;;4989720;28;20461;-81
2021/11/17 06:44:11;;;;;;;7.13;3.13;;;;;;;;;;4999459;28;20065;-80
2021/11/17 06:46:38;;;;;;;7.45;3.80;;;;;;;;;;4982657;28;20078;-80
2021/11/17 06:49:04;;;;;;;4.90;2.92;;;;;;;;;;4975541;28;20068;-81
2021/11/17 06:51:31;;;;;;;6.10;3.00;;;;;;;;;;4993507;28;20497;-78
2021/11/17 06:53:57;;;;;;;5.72;3.15;;;;;;;;;;5007015;28;20299;-79
2021/11/17 06:56:23;;;;;;;6.25;3.10;;;;;;;;;;5007857;28;20065;-79
2021/11/17 06:58:50;;;;;;;5.97;3.42;;;;;;;;;;5000046;28;20124;-79
2021/11/17 07:01:16;;;;;;;5.05;2.72;;;;;;;;;;4993088;28;20066;-81
2021/11/17 07:03:43;;;;;;;5.75;3.10;;;;;;;;;;4989683;28;20062;-81
2021/11/17 07:06:09;;;;;;;9.02;2.90;;;;;;;;;;4990840;28;20065;-80
2021/11/17 07:08:37;;;;;;;5.85;3.30;;;;;;;;;;4992945;28;20062;-79
2021/11/17 07:11:03;;;;;;;4.78;2.60;;;;;;;;;;4997121;28;20478;-79
2021/11/17 07:13:30;;;;;;;6.72;3.08;;;;;;;;;;4990578;28;20069;-80
2021/11/17 07:15:56;;;;;;;5.47;2.97;;;;;;;;;;4983370;28;20069;-80
2021/11/17 07:18:23;;;;;;;5.47;2.90;;;;;;;;;;5012662;28;20065;-80
2021/11/17 07:20:49;;;;;;;4.82;2.63;;;;;;;;;;4987830;28;20069;-80
2021/11/17 07:23:17;;;;;;;5.53;3.33;;;;;;;;;;4995933;28;20049;-80
2021/11/17 07:25:43;;;;;;;5.20;2.60;;;;;;;;;;4993129;28;20093;-80
2021/11/17 07:28:09;;;;;;;5.38;2.70;;;;;;;;;;5018422;28;20061;-78
2021/11/17 07:30:38;;;;;;;5.13;2.60;;;;;;;;;;5011165;28;20061;-80
2021/11/17 07:33:05;;;;;;;4.32;2.25;;;;;;;;;;4997848;28;20046;-79
2021/11/17 07:35:33;;;;;;;5.65;2.50;;;;;;;;;;4983431;28;20065;-80
2021/11/17 07:38:03;;;;;;;5.65;2.67;;;;;;;;;;4984705;28;20058;-79
2021/11/17 07:40:30;;;;;;;4.60;2.63;;;;;;;;;;4998768;28;20491;-79
2021/11/17 07:42:57;;;;;;;4.85;2.58;;;;;;;;;;5008428;28;20061;-79
2021/11/17 07:45:23;;;;;;;4.13;2.20;;;;;;;;;;5011167;28;20124;-80
2021/11/17 07:47:50;;;;;;;6.00;2.92;;;;;;;;;;5010308;28;20045;-79
2021/11/17 07:50:16;;;;;;;4.97;2.70;;;;;;;;;;5014392;28;20882;-80
2021/11/17 07:52:43;;;;;;;5.18;2.42;;;;;;;;;;5003613;28;20484;-80
2021/11/17 07:55:13;;;;;;;5.53;2.97;;;;;;;;;;4990750;28;20049;-80
2021/11/17 07:57:41;;;;;;;4.72;2.60;;;;;;;;;;5000916;28;20494;-79
2021/11/17 08:00:10;;;;;;;4.63;2.42;;;;;;;;;;5011528;28;20048;-78
2021/11/17 08:02:37;;;;;;;4.68;2.50;;;;;;;;;;5005902;28;20054;-77
2021/11/17 08:05:03;;;;;;;4.50;2.38;;;;;;;;;;5001449;28;20095;-79
2021/11/17 08:07:30;;;;;;;5.85;2.67;;;;;;;;;;5006454;28;20062;-81
2021/11/17 08:09:57;;;;;;;4.18;2.30;;;;;;;;;;5008884;28;20537;-81
2021/11/17 08:12:23;;;;;;;4.20;2.30;;;;;;;;;;5013250;28;20050;-80
2021/11/17 08:14:49;;;;;;;5.28;2.40;;;;;;;;;;5012534;28;20454;-79
2021/11/17 08:17:16;;;;;;;4.75;2.90;;;;;;;;;;5012763;28;20084;-81
2021/11/17 08:19:43;;;;;;;4.60;2.33;;;;;;;;;;5008301;28;20065;-80
2021/11/17 08:22:10;;;;;;;4.50;2.25;;;;;;;;;;4995855;28;20058;-80
2021/11/17 08:24:38;;;;;;;4.68;2.20;;;;;;;;;;4970364;28;20076;-80
2021/11/17 08:27:05;;;;;;;4.15;2.20;;;;;;;;;;5008524;28;20065;-79
2021/11/17 08:29:32;;;;;;;4.18;2.10;;;;;;;;;;5008973;28;20058;-80
2021/11/17 08:31:59;;;;;;;5.20;2.45;;;;;;;;;;5012225;28;20140;-79
2021/11/17 08:34:26;;;;;;;3.90;2.15;;;;;;;;;;5007033;28;20127;-81
2021/11/17 08:36:55;;;;;;;4.75;2.45;;;;;;;;;;5009272;28;20439;-80
2021/11/17 08:39:22;;;;;;;4.57;2.40;;;;;;;;;;4993032;28;20053;-79
2021/11/17 08:41:48;;;;;;;4.35;2.50;;;;;;;;;;4990141;28;20989;-80
2021/11/17 08:44:14;;;;;;;3.67;2.17;;;;;;;;;;5017228;28;20115;-80
2021/11/17 08:46:41;;;;;;;4.78;2.53;;;;;;;;;;5016609;28;20066;-79
2021/11/17 08:49:07;;;;;;;3.83;2.10;;;;;;;;;;4994877;28;20133;-81
2021/11/17 08:51:34;;;;;;;4.80;2.17;;;;;;;;;;5009501;28;20107;-81
2021/11/17 08:54:01;;;;;;;3.78;2.03;;;;;;;;;;4996892;28;20065;-80
2021/11/17 08:56:31;;;;;;;3.95;2.28;;;;;;;;;;5011709;28;20073;-80
2021/11/17 08:58:57;;;;;;;4.05;2.03;;;;;;;;;;5015114;28;23241;-80
2021/11/17 09:01:24;;;;;;;4.25;2.20;;;;;;;;;;5010840;28;20072;-80
2021/11/17 09:03:50;;;;;;;5.25;2.30;;;;;;;;;;5007950;28;20076;-81
2021/11/17 09:06:17;;;;;;;4.05;2.40;;;;;;;;;;5015248;28;20062;-80
2021/11/17 09:08:43;;;;;;;4.25;2.33;;;;;;;;;;5003077;28;20057;-80
2021/11/17 09:11:16;;;;;;;4.68;2.45;;;;;;;;;;4981534;28;20038;-80
2021/11/17 09:13:43;;;;;;;4.70;2.30;;;;;;;;;;5018186;28;20053;-81
2021/11/17 09:16:09;;;;;;;4.28;1.73;;;;;;;;;;5016236;28;20064;-80
2021/11/17 09:18:37;;;;;;;4.45;1.92;;;;;;;;;;5013153;28;20064;-79
2021/11/17 09:21:05;;;;;;;4.22;2.10;;;;;;;;;;4997069;28;20041;-82
2021/11/17 09:23:31;;;;;;;3.78;2.17;;;;;;;;;;5017770;28;20537;-80
2021/11/17 09:25:59;;;;;;;5.35;2.55;;;;;;;;;;5013218;28;20077;-81
2021/11/17 09:28:26;;;;;;;4.10;2.22;;;;;;;;;;5018981;28;20062;-80
2021/11/17 09:30:52;;;;;;;3.55;2.03;;;;;;;;;;5011881;28;20062;-82
2021/11/17 09:33:20;;;;;;;4.15;2.33;;;;;;;;;;5011724;28;20080;-82
2021/11/17 09:35:47;;;;;;;3.97;2.05;;;;;;;;;;5003135;28;20038;-80
2021/11/17 09:38:14;;;;;;;4.03;2.30;;;;;;;;;;5009666;28;20058;-79
2021/11/17 09:40:44;;;;;;;4.30;2.03;;;;;;;;;;5008186;28;20069;-78
2021/11/17 09:43:11;;;;;;;4.53;2.13;;;;;;;;;;4998364;28;20773;-78
2021/11/17 09:45:39;;;;;;;4.60;2.35;;;;;;;;;;5006311;28;20540;-78
2021/11/17 09:48:06;;;;;;;4.45;2.17;;;;;;;;;;5010244;28;20061;-77
2021/11/17 09:50:42;;;;;;;4.72;2.28;;;;;;;;;;5014510;28;20053;-78
2021/11/17 09:53:18;;;;;;;2.85;1.40;;;;;;;;;;5009061;28;20072;-76
2021/11/17 09:55:47;;;;;;;5.20;2.05;;;;;;;;;;4992559;28;20061;-78
2021/11/17 09:58:16;;;;;;;4.03;2.20;;;;;;;;;;5009381;28;20058;-78
2021/11/17 10:00:42;;;;;;;7.22;3.20;;;;;;;;;;5005043;28;20069;-79
2021/11/17 10:03:12;;;;;;;9.00;3.40;;;;;;;;;;5008064;28;20068;-77
2021/11/17 10:06:24;;;;;;;6.78;2.75;;;;;;;;;;5013896;28;20111;-79
2021/11/17 10:09:14;;;;;;;5.25;3.42;;;;;;;;;;5012541;28;20054;-77
2021/11/17 10:14:12;;;;;;;5.30;2.50;;;;;;;;;;5006971;28;21393;-80
2021/11/17 10:16:39;;;;;;;5.85;2.65;;;;;;;;;;5010850;28;20550;-79
2021/11/17 10:19:28;;;;;;;5.05;1.95;;;;;;;;;;5009919;28;20073;-80
2021/11/17 10:22:06;;;;;;;5.38;2.50;;;;;;;;;;5014346;28;21123;-80
2021/11/17 10:24:44;;;;;;;4.85;2.00;;;;;;;;;;5008293;28;20091;-78
2021/11/17 10:27:11;;;;;;;5.95;2.38;;;;;;;;;;5008540;28;20539;-80
2021/11/17 10:29:44;;;;;;;4.95;2.35;;;;;;;;;;5011142;28;20057;-78
2021/11/17 10:32:22;;;;;;;4.05;2.20;;;;;;;;;;5007759;28;20062;-78
2021/11/17 10:34:53;;;;;;;6.15;2.50;;;;;;;;;;5004565;28;20525;-79
2021/11/17 10:37:25;;;;;;;4.20;2.13;;;;;;;;;;5012468;28;20057;-78
2021/11/17 10:39:52;;;;;;;5.63;2.20;;;;;;;;;;5017325;28;20092;-80
2021/11/17 10:42:19;;;;;;;4.03;2.00;;;;;;;;;;5015911;28;20065;-80
2021/11/17 10:44:50;;;;;;;3.63;2.20;;;;;;;;;;5005031;28;20140;-80
2021/11/17 10:47:22;;;;;;;4.28;2.25;;;;;;;;;;5008368;28;20155;-78
2021/11/17 10:50:09;;;;;;;4.75;1.95;;;;;;;;;;5009098;28;20123;-78
2021/11/17 10:52:56;;;;;;;3.85;1.95;;;;;;;;;;5008052;28;20119;-79
2021/11/17 10:55:34;;;;;;;4.82;2.33;;;;;;;;;;5010720;28;20053;-77
2021/11/17 10:58:05;;;;;;;4.68;2.00;;;;;;;;;;4992517;28;20058;-79
2021/11/17 11:00:34;;;;;;;4.28;1.73;;;;;;;;;;4988445;28;20062;-79
2021/11/17 11:03:01;;;;;;;4.13;1.70;;;;;;;;;;4988440;28;20522;-79
2021/11/17 11:05:33;;;;;;;4.78;2.30;;;;;;;;;;4988905;28;20054;-77
2021/11/17 11:08:02;;;;;;;4.10;1.80;;;;;;;;;;4987736;28;21394;-78
2021/11/17 11:10:42;;;;;;;3.53;1.90;;;;;;;;;;4989078;28;20518;-79
2021/11/17 11:13:11;;;;;;;4.45;2.53;;;;;;;;;;4988399;28;20116;-78
2021/11/17 11:15:43;;;;;;;4.15;2.13;;;;;;;;;;4978087;28;20273;-78
2021/11/17 11:18:10;;;;;;;3.70;1.95;;;;;;;;;;4985443;28;20036;-77
2021/11/17 11:20:36;;;;;;;3.78;1.80;;;;;;;;;;4990385;28;20066;-76
2021/11/17 11:23:03;;;;;;;3.58;1.70;;;;;;;;;;4987507;28;20518;-77
2021/11/17 11:25:41;;;;;;;3.60;1.90;;;;;;;;;;4984805;28;20062;-79
2021/11/17 11:28:23;;;;;;;3.67;1.98;;;;;;;;;;4984759;28;20066;-78
2021/11/17 11:31:01;;;;;;;3.45;1.85;;;;;;;;;;4984045;28;20455;-78
2021/11/17 11:33:29;;;;;;;4.85;1.83;;;;;;;;;;4986311;28;20070;-77
2021/11/17 11:36:11;;;;;;;3.22;1.98;;;;;;;;;;4988048;28;21272;-78
2021/11/17 11:38:39;;;;;;;3.83;2.20;;;;;;;;;;4984475;28;20125;-77
2021/11/17 11:41:05;;;;;;;4.13;2.08;;;;;;;;;;4988639;28;20112;-79
2021/11/17 11:43:34;;;;;;;3.83;1.90;;;;;;;;;;4985938;28;20070;-79
2021/11/17 11:46:19;;;;;;;4.55;1.83;;;;;;;;;;4974915;28;20085;-79
2021/11/17 11:48:54;;;;;;;3.70;2.00;;;;;;;;;;4991089;28;20063;-79
2021/11/17 11:51:21;;;;;;;3.88;1.67;;;;;;;;;;4992018;28;20066;-77
2021/11/17 11:54:06;;;;;;;3.42;1.83;;;;;;;;;;4988308;28;20062;-78
2021/11/17 11:56:37;;;;;;;5.28;1.70;;;;;;;;;;5001416;28;20088;-78
2021/11/17 11:59:09;;;;;;;2.95;1.67;;;;;;;;;;5011351;28;20068;-78
2021/11/17 12:01:35;;;;;;;4.25;1.98;;;;;;;;;;5010516;28;20067;-80
2021/11/17 12:04:08;;;;;;;4.13;1.98;;;;;;;;;;5007449;28;20073;-78
2021/11/17 12:06:37;;;;;;;3.40;1.60;;;;;;;;;;5007789;28;20112;-79
2021/11/17 12:09:10;;;;;;;3.35;1.83;;;;;;;;;;5009557;28;20532;-77
2021/11/17 12:11:44;;;;;;;3.67;1.50;;;;;;;;;;5013180;28;20116;-77
2021/11/17 12:14:12;;;;;;;3.35;1.80;;;;;;;;;;4988679;28;20108;-77
2021/11/17 12:16:42;;;;;;;4.00;1.80;;;;;;;;;;5009506;28;20062;-78
2021/11/17 12:19:11;;;;;;;3.75;1.70;;;;;;;;;;5010189;28;20058;-79
2021/11/17 12:21:41;;;;;;;3.60;2.00;;;;;;;;;;5008926;28;20115;-78
2021/11/17 12:24:10;;;;;;;3.40;1.70;;;;;;;;;;5008054;28;20131;-80
2021/11/17 12:26:38;;;;;;;3.33;1.70;;;;;;;;;;5000814;28;20100;-80
2021/11/17 12:29:19;;;;;;;5.50;1.90;;;;;;;;;;5010999;28;20444;-80
2021/11/17 12:31:51;;;;;;;3.40;1.50;;;;;;;;;;5008887;28;20134;-81
2021/11/17 12:34:20;;;;;;;4.93;1.70;;;;;;;;;;5010343;28;20064;-81
2021/11/17 12:36:58;;;;;;;4.05;1.55;;;;;;;;;;5006900;28;20123;-81
2021/11/17 12:39:27;;;;;;;4.65;2.00;;;;;;;;;;5008313;28;20105;-80
2021/11/17 12:41:55;;;;;;;4.30;1.65;;;;;;;;;;5011327;28;20049;-80
2021/11/17 12:44:21;;;;;;;3.10;1.65;;;;;;;;;;5010433;28;20053;-80
2021/11/17 12:47:11;;;;;;;4.55;1.98;;;;;;;;;;5005222;28;20128;-80
2021/11/17 12:49:43;;;;;;;3.03;1.55;;;;;;;;;;4999805;28;20054;-80
2021/11/17 12:52:09;;;;;;;5.30;1.35;;;;;;;;;;5012397;28;20528;-79
2021/11/17 12:54:40;;;;;;;3.13;1.67;;;;;;;;;;5009938;28;20674;-80
2021/11/17 12:57:13;;;;;;;5.13;1.88;;;;;;;;;;4991500;28;20119;-80
2021/11/17 12:59:41;;;;;;;2.63;1.58;;;;;;;;;;5002887;28;20683;-80
2021/11/17 13:02:28;;;;;;;4.70;1.50;;;;;;;;;;5009047;28;20062;-80
2021/11/17 13:05:14;;;;;;;3.92;1.50;;;;;;;;;;4996266;28;20441;-79
2021/11/17 13:07:48;;;;;;;2.00;1.10;;;;;;;;;;4990594;28;20053;-80
2021/11/17 13:10:29;;;;;;;2.70;1.27;;;;;;;;;;5012057;28;20107;-79
2021/11/17 13:13:03;;;;;;;2.60;1.38;;;;;;;;;;5014816;28;20504;-80
2021/11/17 13:15:37;;;;;;;3.00;1.77;;;;;;;;;;5011256;28;20115;-82
2021/11/17 13:18:05;;;;;;;2.75;1.30;;;;;;;;;;5009045;28;20120;-80
2021/11/17 13:20:44;;;;;;;3.65;1.50;;;;;;;;;;5008347;28;20033;-80
2021/11/17 13:23:10;;;;;;;3.75;1.40;;;;;;;;;;5011863;28;20053;-80
2021/11/17 13:25:54;;;;;;;3.88;1.88;;;;;;;;;;5008430;28;20061;-78
2021/11/17 13:28:39;;;;;;;5.05;1.70;;;;;;;;;;5011564;28;20443;-79
2021/11/17 13:31:24;;;;;;;2.28;1.17;;;;;;;;;;5000089;28;22190;-79
2021/11/17 13:33:52;;;;;;;2.75;1.13;;;;;;;;;;5003998;28;20053;-78
2021/11/17 13:36:33;;;;;;;4.50;1.30;;;;;;;;;;5007548;28;20092;-80
2021/11/17 13:39:00;;;;;;;2.75;1.48;;;;;;;;;;5012508;28;20474;-79
2021/11/17 13:41:27;;;;;;;2.35;1.45;;;;;;;;;;5008439;28;20489;-79
2021/11/17 13:43:53;;;;;;;3.10;1.38;;;;;;;;;;4990087;28;20587;-79
2021/11/17 13:46:20;;;;;;;3.85;1.38;;;;;;;;;;5008551;28;20504;-80
2021/11/17 13:48:48;;;;;;;2.70;1.20;;;;;;;;;;4984841;28;20087;-79
2021/11/17 13:51:17;;;;;;;2.72;1.50;;;;;;;;;;4990916;28;20064;-79
2021/11/17 13:53:43;;;;;;;3.97;1.10;;;;;;;;;;5009132;28;20062;-79
2021/11/17 13:56:11;;;;;;;1.90;1.10;;;;;;;;;;5010841;28;20050;-80
2021/11/17 13:58:38;;;;;;;2.20;1.10;;;;;;;;;;5010128;28;20073;-79
2021/11/17 14:01:05;;;;;;;2.42;1.20;;;;;;;;;;5008105;28;20062;-80
2021/11/17 14:03:32;;;;;;;2.90;1.25;;;;;;;;;;5006567;28;20057;-80
2021/11/17 14:06:03;;;;;;;2.85;1.25;;;;;;;;;;5009445;28;20034;-78
2021/11/17 14:08:30;;;;;;;2.20;1.10;;;;;;;;;;5009751;28;20077;-79
2021/11/17 14:10:58;;;;;;;2.42;1.10;;;;;;;;;;5006688;28;20085;-78
2021/11/17 14:13:25;;;;;;;4.10;1.20;;;;;;;;;;5009825;28;20477;-78
2021/11/17 14:15:51;;;;;;;3.25;1.42;;;;;;;;;;5008926;28;20386;-79
2021/11/17 14:18:18;;;;;;;3.90;1.58;;;;;;;;;;5010257;28;20065;-80
2021/11/17 14:20:46;;;;;;;2.25;1.20;;;;;;;;;;4986531;28;20492;-79
2021/11/17 14:23:13;;;;;;;6.32;1.50;;;;;;;;;;5010778;28;20034;-78
2021/11/17 14:25:41;;;;;;;2.75;1.25;;;;;;;;;;4992344;28;20073;-80
2021/11/17 14:28:12;;;;;;;3.88;1.50;;;;;;;;;;5005341;28;20497;-80
2021/11/17 14:30:41;;;;;;;2.92;1.25;;;;;;;;;;5013445;28;20065;-80
2021/11/17 14:33:09;;;;;;;3.10;1.30;;;;;;;;;;5007318;28;20505;-80
2021/11/17 14:35:36;;;;;;;3.28;1.20;;;;;;;;;;5007938;28;20665;-78
2021/11/17 14:38:03;;;;;;;2.10;1.30;;;;;;;;;;5009893;28;20160;-80
2021/11/17 14:40:30;;;;;;;2.13;0.90;;;;;;;;;;5014537;28;20135;-80
2021/11/17 14:42:56;;;;;;;2.33;1.08;;;;;;;;;;5006019;28;21131;-80
2021/11/17 14:45:25;;;;;;;3.78;1.27;;;;;;;;;;5007841;28;20061;-81
2021/11/17 14:47:52;;;;;;;3.00;1.10;;;;;;;;;;4982939;28;20054;-78
2021/11/17 14:50:19;;;;;;;2.50;0.95;;;;;;;;;;5007190;28;20053;-78
2021/11/17 14:52:47;;;;;;;5.15;1.30;;;;;;;;;;5003763;28;20036;-78
2021/11/17 14:55:15;;;;;;;3.72;1.17;;;;;;;;;;5006314;28;20053;-79
2021/11/17 14:57:42;;;;;;;2.17;1.10;;;;;;;;;;5005472;28;20081;-78
2021/11/17 15:00:10;;;;;;;3.65;1.25;;;;;;;;;;5005802;28;20057;-79
2021/11/17 15:02:37;;;;;;;3.28;1.50;;;;;;;;;;4999320;28;20065;-78
2021/11/17 15:05:04;;;;;;;1.33;0.80;;;;;;;;;;5008519;28;20580;-77
2021/11/17 15:07:30;;;;;;;3.58;1.10;;;;;;;;;;5006168;28;20065;-81
2021/11/17 15:09:57;;;;;;;4.47;1.50;;;;;;;;;;5006089;28;20116;-81
2021/11/17 15:12:29;;;;;;;3.97;1.40;;;;;;;;;;4995170;28;20486;-81
2021/11/17 15:14:57;;;;;;;2.47;1.00;;;;;;;;;;5004887;28;21707;-82
2021/11/17 15:17:23;;;;;;;2.63;1.20;;;;;;;;;;5005592;28;20069;-82
2021/11/17 15:19:49;;;;;;;4.07;1.20;;;;;;;;;;5012290;28;20104;-83
2021/11/17 15:22:19;;;;;;;3.30;1.05;;;;;;;;;;5008972;28;20061;-83
2021/11/17 15:24:48;;;;;;;1.85;0.98;;;;;;;;;;5005176;28;20118;-80
2021/11/17 15:27:29;;;;;;;4.05;1.05;;;;;;;;;;4999000;28;20076;-81
2021/11/17 15:29:56;;;;;;;2.80;1.10;;;;;;;;;;5002089;28;20350;-81
2021/11/17 15:32:23;;;;;;;3.33;1.20;;;;;;;;;;5004874;28;20066;-83
2021/11/17 15:34:52;;;;;;;3.22;1.17;;;;;;;;;;5002637;28;20057;-81
2021/11/17 15:37:19;;;;;;;2.95;1.17;;;;;;;;;;5006466;28;20037;-81
2021/11/17 15:39:45;;;;;;;4.30;1.10;;;;;;;;;;4987396;28;20022;-81
2021/11/17 15:42:12;;;;;;;2.28;1.20;;;;;;;;;;4989974;28;20445;-86
2021/11/17 15:44:39;;;;;;;4.43;1.02;;;;;;;;;;5007385;28;20513;-83
2021/11/17 15:47:07;;;;;;;4.97;0.90;;;;;;;;;;5006267;28;20070;-83
2021/11/17 15:49:34;;;;;;;2.85;1.20;;;;;;;;;;4988509;28;20062;-82
2021/11/17 15:52:01;;;;;;;2.20;1.00;;;;;;;;;;4991028;28;20072;-82
2021/11/17 15:54:28;;;;;;;1.67;0.73;;;;;;;;;;5007959;28;20053;-83
2021/11/17 15:56:54;;;;;;;4.38;1.10;;;;;;;;;;5006305;28;20218;-82
2021/11/17 15:59:21;;;;;;;3.20;1.20;;;;;;;;;;5005376;28;20466;-83
2021/11/17 16:01:49;;;;;;;5.03;1.40;;;;;;;;;;5009349;28;20049;-83
2021/11/17 16:04:15;;;;;;;3.70;1.08;;;;;;;;;;4994346;28;20026;-83
2021/11/17 16:06:57;;;;;;;2.90;1.00;;;;;;;;;;5009015;28;20062;-82
2021/11/17 16:09:25;;;;;;;5.65;1.30;;;;;;;;;;5013364;28;20034;-80
2021/11/17 16:11:52;;;;;;;1.85;0.90;;;;;;;;;;5015456;28;20041;-80
2021/11/17 16:14:19;;;;;;;3.83;1.77;;;;;;;;;;5016353;28;20393;-80
2021/11/17 16:16:46;;;;;;;3.33;0.98;;;;;;;;;;4993435;28;20053;-81
2021/11/17 16:19:13;;;;;;;11.57;4.15;;;;;;;;;;5015522;28;20084;-82
2021/11/17 16:21:41;;;;;;;34.33;9.00;;;;;;;;;;5021334;28;20046;-80
2021/11/17 16:26:53;;;;;;;39.88;11.55;;;;;;;;;;5010641;28;20448;-77
2021/11/17 16:29:20;;;;;;;60.45;16.42;;;;;;;;;;5014298;28;20060;-79
2021/11/17 16:31:47;;;;;;;57.25;16.13;;;;;;;;;;5013970;28;20092;-77
2021/11/17 16:34:13;;;;;;;46.78;12.82;;;;;;;;;;5021456;28;20061;-78
2021/11/17 16:36:42;;;;;;;64.53;14.80;;;;;;;;;;5019938;28;20034;-79
2021/11/17 16:39:09;;;;;;;42.55;10.85;;;;;;;;;;5020828;28;20076;-78
2021/11/17 16:41:36;;;;;;;33.15;9.57;;;;;;;;;;5019633;28;20026;-79
2021/11/17 16:44:03;;;;;;;32.53;8.38;;;;;;;;;;5023308;28;20061;-78
2021/11/17 16:46:29;;;;;;;33.17;9.10;;;;;;;;;;5024842;28;20029;-77
2021/11/17 16:48:57;;;;;;;30.33;8.52;;;;;;;;;;5011357;28;20459;-78
2021/11/17 16:51:24;;;;;;;26.00;6.93;;;;;;;;;;5023595;28;20034;-77
2021/11/17 16:53:51;;;;;;;27.15;7.15;;;;;;;;;;5022538;28;20042;-78
2021/11/17 16:56:18;;;;;;;20.08;5.88;;;;;;;;;;5020077;28;20046;-78
2021/11/17 16:58:44;;;;;;;21.33;7.07;;;;;;;;;;5006460;28;20042;-77
2021/11/17 17:01:12;;;;;;;22.75;6.32;;;;;;;;;;5020012;28;20090;-77
2021/11/17 17:03:39;;;;;;;16.40;4.65;;;;;;;;;;5023982;28;20088;-78
2021/11/17 17:06:08;;;;;;;52.75;16.13;;;;;;;;;;5024762;28;20394;-77
2021/11/17 17:08:34;;;;;;;40.17;10.95;;;;;;;;;;5019490;28;20099;-78
2021/11/17 17:11:02;;;;;;;45.25;10.95;;;;;;;;;;5019968;28;20449;-77
2021/11/17 17:13:29;;;;;;;24.13;7.32;;;;;;;;;;5020051;28;20030;-78
2021/11/17 17:15:56;;;;;;;34.55;9.73;;;;;;;;;;5018229;28;21212;-78
2021/11/17 17:18:23;;;;;;;23.50;6.82;;;;;;;;;;5020830;28;20037;-78
2021/11/17 17:21:00;;;;;;;30.92;9.82;;;;;;;;;;5018220;28;20034;-78
2021/11/17 17:23:27;;;;;;;24.45;6.50;;;;;;;;;;5020747;28;20065;-77
2021/11/17 17:25:54;;;;;;;27.25;8.15;;;;;;;;;;5025312;28;20034;-78
2021/11/17 17:28:24;;;;;;;25.75;6.78;;;;;;;;;;5020049;28;20034;-78
2021/11/17 17:30:51;;;;;;;29.58;7.22;;;;;;;;;;5018403;28;21291;-78
2021/11/17 17:33:19;;;;;;;25.98;6.40;;;;;;;;;;5022955;28;20065;-78
2021/11/17 17:35:46;;;;;;;27.23;7.50;;;;;;;;;;5027537;28;20042;-78